Time;durP1;ratioP1;P1;durP2;ratioP2;P2;SDS_P1;SDS_P2;PMS_P1;PMS_P2;Temp;Humidity;BMP_temperature;BMP_pressure;BME280_temperature;BME280_humidity;BME280_pressure;Samples;Min_cycle;Max_cycle;Signal;HPM_P1;HPM_P2
2022/05/10 00:01:52;;;;;;;13.07;7.57;;;;;;;16.05;100.00;98743.94;4923806;29;20050;-82
2022/05/10 00:04:18;;;;;;;9.68;7.43;;;;;;;15.98;100.00;98748.56;4922904;29;20689;-82
2022/05/10 00:06:47;;;;;;;9.88;7.25;;;;;;;16.00;100.00;98741.19;4912283;29;20040;-83
2022/05/10 00:09:15;;;;;;;15.77;7.72;;;;;;;15.93;100.00;98729.97;4929206;29;20039;-82
2022/05/10 00:11:41;;;;;;;13.15;7.97;;;;;;;15.72;100.00;98732.19;4920790;29;20036;-81
2022/05/10 00:14:07;;;;;;;13.77;8.32;;;;;;;15.73;100.00;98725.88;4923137;29;20054;-82
2022/05/10 00:16:39;;;;;;;15.80;8.82;;;;;;;15.51;100.00;98728.34;4926063;29;20027;-82
2022/05/10 00:19:04;;;;;;;16.63;9.65;;;;;;;15.54;100.00;98723.41;4924355;29;20035;-82
2022/05/10 00:21:30;;;;;;;15.88;9.13;;;;;;;15.70;100.00;98731.59;4924812;29;20118;-82
2022/05/10 00:23:56;;;;;;;14.18;8.65;;;;;;;15.65;100.00;98732.34;4928032;29;20114;-83
2022/05/10 00:26:21;;;;;;;18.58;8.75;;;;;;;15.86;100.00;98724.78;4924994;29;20036;-83
2022/05/10 00:28:47;;;;;;;13.38;8.57;;;;;;;15.87;100.00;98720.28;4926343;29;20538;-83
2022/05/10 00:31:17;;;;;;;15.35;8.40;;;;;;;15.77;100.00;98727.00;4924445;29;20031;-83
2022/05/10 00:33:42;;;;;;;15.10;9.15;;;;;;;15.65;100.00;98726.22;4924525;29;20032;-83
2022/05/10 00:36:11;;;;;;;10.95;8.60;;;;;;;15.71;100.00;98722.63;4928638;29;20550;-82
2022/05/10 00:38:39;;;;;;;13.27;7.95;;;;;;;15.76;100.00;98722.75;4928428;29;20497;-83
2022/05/10 00:41:26;;;;;;;14.80;8.75;;;;;;;15.62;100.00;98724.06;4928682;29;20032;-84
2022/05/10 00:43:59;;;;;;;12.85;8.25;;;;;;;15.73;100.00;98714.47;4923083;29;20027;-82
2022/05/10 00:46:32;;;;;;;15.15;8.93;;;;;;;15.74;100.00;98732.78;4924150;29;20056;-84
2022/05/10 00:49:01;;;;;;;11.45;7.72;;;;;;;15.79;100.00;98729.41;4921270;29;20032;-83
2022/05/10 00:51:45;;;;;;;9.70;7.35;;;;;;;15.78;100.00;98728.59;4923189;29;20093;-84
2022/05/10 00:54:11;;;;;;;10.10;7.07;;;;;;;15.75;100.00;98718.50;4924912;29;20036;-83
2022/05/10 00:56:42;;;;;;;14.15;8.07;;;;;;;15.78;100.00;98723.31;4923819;29;20120;-84
2022/05/10 00:59:16;;;;;;;13.00;7.88;;;;;;;15.65;100.00;98718.28;4925631;29;20031;-81
2022/05/10 01:01:45;;;;;;;10.63;7.25;;;;;;;15.78;100.00;98715.38;4921092;29;20076;-81
2022/05/10 01:04:33;;;;;;;11.45;7.72;;;;;;;15.68;100.00;98716.00;4920307;29;20394;-81
2022/05/10 01:07:14;;;;;;;10.65;6.45;;;;;;;15.62;100.00;98708.19;4914429;29;20115;-81
2022/05/10 01:09:49;;;;;;;10.07;6.50;;;;;;;15.57;100.00;98701.75;4924998;29;20040;-82
2022/05/10 01:12:23;;;;;;;9.40;5.53;;;;;;;15.51;100.00;98697.41;4920924;29;20107;-82
2022/05/10 01:15:06;;;;;;;10.38;5.68;;;;;;;15.71;100.00;98704.09;4926666;29;20032;-82
2022/05/10 01:17:33;;;;;;;14.07;6.53;;;;;;;15.62;100.00;98708.19;4925043;29;20032;-81
2022/05/10 01:19:59;;;;;;;11.38;6.57;;;;;;;15.22;100.00;98699.19;4925997;29;20601;-83
2022/05/10 01:22:54;;;;;;;8.18;5.63;;;;;;;15.54;100.00;98689.00;4925163;29;20027;-83
2022/05/10 01:25:44;;;;;;;9.13;5.90;;;;;;;15.52;100.00;98674.41;4929762;29;20071;-83
2022/05/10 01:28:30;;;;;;;9.75;5.20;;;;;;;15.50;100.00;98684.44;4917963;29;20039;-82
2022/05/10 01:31:02;;;;;;;7.85;6.00;;;;;;;15.56;100.00;98671.06;4921414;29;20066;-84
2022/05/10 01:33:36;;;;;;;9.87;5.93;;;;;;;15.47;100.00;98664.53;4920361;29;20087;-83
2022/05/10 01:36:20;;;;;;;;;;;;;;;15.58;100.00;98670.81;4926370;29;20486;-83
2022/05/10 01:39:14;;;;;;;6.63;5.57;;;;;;;15.50;100.00;98661.41;4917652;29;19992;-83
2022/05/10 01:41:51;;;;;;;7.75;5.80;;;;;;;15.42;100.00;98654.66;4924398;29;20418;-82
2022/05/10 01:44:48;;;;;;;8.25;5.32;;;;;;;15.47;100.00;98663.75;4925408;29;20078;-82
2022/05/10 01:47:28;;;;;;;10.95;5.47;;;;;;;15.19;100.00;98652.91;4920892;29;20423;-82
2022/05/10 01:50:38;;;;;;;11.48;5.75;;;;;;;14.94;100.00;98646.06;4920716;29;20052;-82
2022/05/10 01:53:21;;;;;;;11.80;5.30;;;;;;;15.17;100.00;98649.69;4919557;29;20518;-84
2022/05/10 01:55:50;;;;;;;5.93;4.57;;;;;;;15.22;100.00;98651.59;4927800;29;20178;-82
2022/05/10 01:58:22;;;;;;;8.85;5.38;;;;;;;14.89;100.00;98635.38;4923995;29;20466;-82
2022/05/10 02:00:55;;;;;;;6.00;4.85;;;;;;;15.01;100.00;98629.28;4924404;29;20083;-81
2022/05/10 02:03:27;;;;;;;5.18;4.60;;;;;;;15.23;100.00;98632.88;4921923;29;20094;-83
2022/05/10 02:06:04;;;;;;;10.32;5.50;;;;;;;15.23;100.00;98647.94;4921286;29;20040;-81
2022/05/10 02:08:51;;;;;;;12.30;5.57;;;;;;;15.14;100.00;98636.94;4922851;29;20035;-84
2022/05/10 02:11:18;;;;;;;6.78;5.55;;;;;;;14.84;100.00;98643.19;4921657;29;20054;-82
2022/05/10 02:13:53;;;;;;;10.30;6.25;;;;;;;15.04;100.00;98644.66;4924429;29;20035;-82
2022/05/10 02:16:41;;;;;;;11.75;7.15;;;;;;;14.89;100.00;98631.94;4926548;29;20024;-82
2022/05/10 02:19:23;;;;;;;10.02;6.60;;;;;;;14.94;100.00;98635.50;4924630;29;20032;-82
2022/05/10 02:22:00;;;;;;;8.55;5.80;;;;;;;15.03;100.00;98640.41;4924010;29;20034;-82
2022/05/10 02:24:42;;;;;;;11.05;6.20;;;;;;;14.97;100.00;98639.50;4904844;29;20042;-81
2022/05/10 02:27:17;;;;;;;10.73;6.13;;;;;;;14.96;100.00;98633.44;4922864;29;20031;-82
2022/05/10 02:29:50;;;;;;;9.15;5.68;;;;;;;14.96;100.00;98644.00;4922472;29;20055;-83
2022/05/10 02:35:14;;;;;;;7.45;4.78;;;;;;;14.94;100.00;98638.13;4928183;29;20028;-82
2022/05/10 02:37:40;;;;;;;7.53;5.68;;;;;;;15.05;100.00;98636.50;4908654;29;20036;-81
2022/05/10 02:40:07;;;;;;;12.45;6.10;;;;;;;15.10;100.00;98617.28;4905813;29;20086;-83
2022/05/10 02:42:34;;;;;;;10.85;6.15;;;;;;;14.88;100.00;98617.13;4925788;29;20076;-82
2022/05/10 02:45:01;;;;;;;10.65;6.05;;;;;;;15.19;100.00;98615.06;4903966;29;20028;-81
2022/05/10 02:47:34;;;;;;;7.82;6.10;;;;;;;15.09;100.00;98615.69;4926119;29;20043;-82
2022/05/10 02:50:00;;;;;;;8.32;5.65;;;;;;;15.17;100.00;98617.97;4922398;29;20052;-81
2022/05/10 02:52:27;;;;;;;8.98;5.80;;;;;;;15.14;100.00;98615.78;4918727;29;20040;-81
2022/05/10 02:54:54;;;;;;;12.73;5.80;;;;;;;14.96;100.00;98612.28;4924908;29;20478;-84
2022/05/10 02:57:23;;;;;;;11.77;5.97;;;;;;;14.70;100.00;98610.91;4927809;29;20090;-82
2022/05/10 02:59:49;;;;;;;9.35;5.88;;;;;;;14.83;100.00;98601.97;4922569;29;20039;-82
2022/05/10 03:02:22;;;;;;;8.55;5.80;;;;;;;14.94;100.00;98609.06;4923532;29;20032;-81
2022/05/10 03:04:56;;;;;;;8.60;5.90;;;;;;;14.94;100.00;98595.84;4920885;29;20699;-81
2022/05/10 03:07:23;;;;;;;10.05;5.85;;;;;;;14.97;100.00;98598.03;4918860;29;20131;-81
2022/05/10 03:09:48;;;;;;;9.50;5.75;;;;;;;15.10;100.00;98586.38;4925594;29;20127;-81
2022/05/10 03:12:14;;;;;;;10.20;6.57;;;;;;;14.95;100.00;98583.44;4923305;29;20450;-81
2022/05/10 03:14:39;;;;;;;10.15;6.18;;;;;;;14.95;100.00;98584.25;4927439;29;20138;-83
2022/05/10 03:17:05;;;;;;;8.55;5.80;;;;;;;14.93;100.00;98567.78;4924627;29;20040;-83
2022/05/10 03:19:32;;;;;;;9.35;5.88;;;;;;;14.67;100.00;98580.47;4926814;29;20061;-82
2022/05/10 03:21:58;;;;;;;9.90;6.60;;;;;;;14.63;100.00;98581.16;4930357;29;20415;-80
2022/05/10 03:24:23;;;;;;;9.55;6.25;;;;;;;14.76;100.00;98577.53;4927030;29;20079;-80
2022/05/10 03:26:52;;;;;;;6.75;5.85;;;;;;;14.61;100.00;98584.06;4927929;29;20474;-80
2022/05/10 03:29:18;;;;;;;10.43;6.30;;;;;;;14.52;100.00;98574.88;4924835;29;20044;-80
2022/05/10 03:31:44;;;;;;;9.98;6.15;;;;;;;14.83;100.00;98575.53;4908235;29;20036;-80
2022/05/10 03:36:54;;;;;;;10.35;6.82;;;;;;;15.03;100.00;98569.03;4930362;29;20032;-81
2022/05/10 03:39:20;;;;;;;9.70;6.15;;;;;;;14.77;100.00;98563.28;4922423;29;20036;-81
2022/05/10 03:41:46;;;;;;;12.55;6.78;;;;;;;14.71;100.00;98565.78;4928029;29;20215;-81
2022/05/10 03:44:12;;;;;;;8.15;6.20;;;;;;;14.56;100.00;98545.13;4927697;29;20499;-80
2022/05/10 03:46:38;;;;;;;9.00;6.90;;;;;;;14.63;100.00;98545.00;4928138;29;20039;-80
2022/05/10 03:49:04;;;;;;;11.43;6.88;;;;;;;14.54;100.00;98551.66;4923925;29;20109;-81
2022/05/10 03:51:30;;;;;;;9.07;6.15;;;;;;;14.59;100.00;98538.59;4923417;29;20115;-80
2022/05/10 03:53:56;;;;;;;10.20;7.00;;;;;;;14.48;100.00;98548.13;4930363;29;20550;-80
2022/05/10 03:56:21;;;;;;;10.77;7.40;;;;;;;14.21;100.00;98538.03;4925542;29;20035;-81
2022/05/10 03:58:47;;;;;;;14.23;7.22;;;;;;;14.46;100.00;98555.50;4925509;29;20035;-81
2022/05/10 04:01:13;;;;;;;9.52;6.97;;;;;;;14.37;100.00;98557.69;4925448;29;20028;-81
2022/05/10 04:03:38;;;;;;;9.32;6.55;;;;;;;14.14;100.00;98559.28;4921177;29;20028;-81
2022/05/10 04:06:06;;;;;;;10.52;6.95;;;;;;;14.33;100.00;98566.28;4925521;29;20470;-81
2022/05/10 04:08:32;;;;;;;9.45;7.28;;;;;;;14.37;100.00;98568.25;4930586;29;20066;-81
2022/05/10 04:11:06;;;;;;;10.30;7.50;;;;;;;14.49;100.00;98559.50;4922399;29;20032;-81
2022/05/10 04:13:32;;;;;;;11.30;6.97;;;;;;;14.47;100.00;98549.19;4925707;29;20040;-83
2022/05/10 04:15:59;;;;;;;11.38;6.40;;;;;;;14.43;100.00;98555.94;4929074;29;20024;-82
2022/05/10 04:18:26;;;;;;;7.55;6.05;;;;;;;14.49;100.00;98564.78;4927265;29;20032;-81
2022/05/10 04:20:52;;;;;;;9.00;5.85;;;;;;;14.60;100.00;98556.03;4929315;29;20023;-81
2022/05/10 04:23:17;;;;;;;7.55;5.35;;;;;;;14.52;100.00;98553.75;4924506;29;20035;-81
2022/05/10 04:25:43;;;;;;;8.38;4.60;;;;;;;14.49;100.00;98554.22;4925280;29;20036;-81
2022/05/10 04:28:10;;;;;;;6.45;4.53;;;;;;;14.39;100.00;98549.50;4921503;29;20553;-81
2022/05/10 04:30:35;;;;;;;8.93;4.63;;;;;;;14.51;100.00;98539.75;4909000;29;20036;-82
2022/05/10 04:33:01;;;;;;;6.32;4.15;;;;;;;14.41;100.00;98532.41;4908684;29;20090;-81
2022/05/10 04:35:28;;;;;;;6.03;3.80;;;;;;;14.23;100.00;98537.81;4923322;29;20118;-81
2022/05/10 04:37:53;;;;;;;7.70;4.55;;;;;;;14.19;100.00;98534.06;4927673;29;20179;-82
2022/05/10 04:43:05;;;;;;;7.88;4.55;;;;;;;14.30;100.00;98550.91;4922938;29;20124;-81
2022/05/10 04:45:33;;;;;;;5.95;3.60;;;;;;;14.21;100.00;98563.66;4926438;29;20035;-82
2022/05/10 04:48:00;;;;;;;7.03;3.53;;;;;;;14.23;100.00;98561.59;4925360;29;20035;-81
2022/05/10 04:50:26;;;;;;;4.90;3.13;;;;;;;14.04;100.00;98558.25;4924099;29;20044;-81
2022/05/10 04:52:51;;;;;;;6.47;2.80;;;;;;;14.05;100.00;98555.38;4925760;29;20032;-81
2022/05/10 04:55:20;;;;;;;6.18;3.25;;;;;;;14.30;100.00;98550.91;4921979;29;20044;-81
2022/05/10 04:57:46;;;;;;;3.55;2.53;;;;;;;14.01;100.00;98543.69;4916271;29;20036;-82
2022/05/10 05:00:14;;;;;;;5.28;2.17;;;;;;;14.37;100.00;98536.56;4925370;29;20035;-80
2022/05/10 05:02:43;;;;;;;6.07;2.08;;;;;;;14.14;100.00;98563.75;4921619;29;20024;-81
2022/05/10 05:05:11;;;;;;;5.07;2.20;;;;;;;14.14;100.00;98548.72;4923073;29;20055;-81
2022/05/10 05:07:38;;;;;;;6.05;1.95;;;;;;;14.36;100.00;98540.25;4927218;29;20390;-82
2022/05/10 05:10:05;;;;;;;4.03;1.60;;;;;;;14.17;100.00;98541.41;4928114;29;20499;-81
2022/05/10 05:12:32;;;;;;;3.53;1.70;;;;;;;13.99;100.00;98538.63;4921457;29;20027;-81
2022/05/10 05:15:03;;;;;;;4.95;1.95;;;;;;;14.17;100.00;98563.31;4928160;29;20091;-81
2022/05/10 05:17:29;;;;;;;3.95;2.20;;;;;;;13.92;100.00;98560.88;4926975;29;20032;-81
2022/05/10 05:19:54;;;;;;;4.00;1.88;;;;;;;14.00;100.00;98563.97;4924998;29;20032;-81
2022/05/10 05:22:20;;;;;;;3.45;1.90;;;;;;;13.96;100.00;98567.31;4922186;29;20063;-82
2022/05/10 05:24:45;;;;;;;7.32;2.30;;;;;;;14.57;100.00;98559.94;4908023;29;20045;-83
2022/05/10 05:27:11;;;;;;;5.70;1.90;;;;;;;13.94;100.00;98548.25;4920519;29;20402;-83
2022/05/10 05:29:38;;;;;;;5.07;2.22;;;;;;;14.38;100.00;98548.72;4925660;29;20482;-82
2022/05/10 05:32:08;;;;;;;4.90;2.10;;;;;;;14.26;100.00;98564.56;4911160;29;20083;-83
2022/05/10 05:34:36;;;;;;;9.32;2.65;;;;;;;14.61;100.00;98541.78;4922811;29;20090;-83
2022/05/10 05:39:47;;;;;;;9.07;2.60;;;;;;;14.51;100.00;98544.22;4925290;29;20036;-81
2022/05/10 05:42:15;;;;;;;10.50;2.22;;;;;;;14.23;100.00;98543.09;4925907;29;20122;-82
2022/05/10 05:44:41;;;;;;;5.78;2.28;;;;;;;14.63;100.00;98542.38;4923954;29;20042;-82
2022/05/10 05:47:07;;;;;;;5.63;2.10;;;;;;;14.67;100.00;98564.63;4928264;29;20038;-81
2022/05/10 05:49:33;;;;;;;8.88;2.38;;;;;;;14.74;100.00;98566.34;4921507;29;20051;-82
2022/05/10 05:52:00;;;;;;;6.60;3.08;;;;;;;14.46;100.00;98567.88;4928536;29;20036;-79
2022/05/10 05:54:26;;;;;;;4.18;2.00;;;;;;;14.40;100.00;98573.06;4922327;29;20035;-81
2022/05/10 05:57:06;;;;;;;5.25;2.33;;;;;;;14.45;100.00;98569.72;4921651;29;20062;-81
2022/05/10 05:59:34;;;;;;;7.80;2.28;;;;;;;14.63;100.00;98581.97;4922028;29;20032;-83
2022/05/10 06:02:01;;;;;;;7.00;2.38;;;;;;;14.58;100.00;98571.31;4922646;29;20028;-84
2022/05/10 06:04:27;;;;;;;8.60;2.33;;;;;;;14.22;100.00;98552.06;4924143;29;20043;-83
2022/05/10 06:06:52;;;;;;;6.97;2.55;;;;;;;14.52;100.00;98580.97;4907355;29;20154;-84
2022/05/10 06:09:22;;;;;;;8.23;2.88;;;;;;;13.96;100.00;98583.16;4922435;29;20040;-84
2022/05/10 06:11:51;;;;;;;9.20;2.80;;;;;;;13.99;100.00;98593.25;4920587;29;20119;-84
2022/05/10 06:14:17;;;;;;;8.55;2.45;;;;;;;14.21;100.00;98590.84;4906789;29;20032;-83
2022/05/10 06:16:44;;;;;;;8.57;3.45;;;;;;;14.41;100.00;98598.44;4928462;29;20083;-83
2022/05/10 06:19:10;;;;;;;10.00;3.20;;;;;;;13.97;100.00;98588.19;4925174;29;20032;-83
2022/05/10 06:21:36;;;;;;;12.43;3.40;;;;;;;13.74;100.00;98581.03;4921703;29;20031;-82
2022/05/10 06:24:03;;;;;;;6.93;2.75;;;;;;;13.65;100.00;98577.91;4907426;29;20379;-83
2022/05/10 06:26:28;;;;;;;8.52;2.90;;;;;;;13.51;100.00;98587.06;4923059;29;20495;-82
2022/05/10 06:28:54;;;;;;;8.55;2.67;;;;;;;13.74;100.00;98590.78;4925762;29;20035;-81
2022/05/10 06:31:22;;;;;;;6.93;2.80;;;;;;;13.39;100.00;98600.19;4930890;29;20036;-81
2022/05/10 06:33:48;;;;;;;10.43;2.55;;;;;;;13.38;100.00;98606.47;4928730;29;20043;-84
2022/05/10 06:36:13;;;;;;;12.18;3.00;;;;;;;13.29;100.00;98595.44;4927827;29;20059;-82
2022/05/10 06:38:40;;;;;;;9.93;2.55;;;;;;;13.20;100.00;98584.41;4912155;29;20098;-83
2022/05/10 06:41:06;;;;;;;10.48;3.00;;;;;;;13.37;100.00;98589.06;4928062;29;20039;-83
2022/05/10 06:43:38;;;;;;;15.27;3.45;;;;;;;13.42;100.00;98597.09;4927621;29;20032;-82
2022/05/10 06:46:09;;;;;;;13.57;3.38;;;;;;;12.92;100.00;98612.09;4913048;29;20505;-82
2022/05/10 06:48:34;;;;;;;9.05;3.13;;;;;;;12.99;100.00;98602.31;4912955;29;20496;-81
2022/05/10 06:51:07;;;;;;;8.43;2.65;;;;;;;13.37;100.00;98596.97;4931918;29;20056;-81
2022/05/10 06:53:34;;;;;;;9.65;2.55;;;;;;;13.33;100.00;98598.41;4921370;29;20028;-80
2022/05/10 06:56:00;;;;;;;15.02;3.85;;;;;;;13.44;100.00;98592.44;4927091;29;20466;-83
2022/05/10 06:58:25;;;;;;;15.98;3.28;;;;;;;13.24;100.00;98611.91;4919950;29;20039;-81
2022/05/10 07:00:51;;;;;;;15.00;3.33;;;;;;;13.69;100.00;98605.47;4926297;29;20059;-80
2022/05/10 07:03:28;;;;;;;14.60;4.68;;;;;;;13.44;100.00;98600.34;4928067;29;20040;-79
2022/05/10 07:05:54;;;;;;;20.50;3.70;;;;;;;13.36;100.00;98606.69;4923730;29;20498;-79
2022/05/10 07:08:21;;;;;;;10.90;2.70;;;;;;;13.35;100.00;98602.44;4925935;29;20036;-80
2022/05/10 07:10:47;;;;;;;15.65;3.05;;;;;;;13.35;100.00;98586.63;4927161;29;20042;-80
2022/05/10 07:13:23;;;;;;;10.88;3.30;;;;;;;13.28;100.00;98594.63;4925346;29;20027;-81
2022/05/10 07:15:49;;;;;;;13.38;3.28;;;;;;;13.50;100.00;98604.72;4927012;29;20028;-83
2022/05/10 07:18:16;;;;;;;14.25;3.10;;;;;;;13.63;100.00;98605.56;4925120;29;20516;-82
2022/05/10 07:20:43;;;;;;;11.40;3.40;;;;;;;13.89;100.00;98593.00;4926720;29;20039;-82
2022/05/10 07:23:10;;;;;;;13.63;2.67;;;;;;;13.81;100.00;98587.03;4919807;29;20372;-83
2022/05/10 07:25:36;;;;;;;12.13;3.35;;;;;;;13.73;100.00;98579.44;4923274;29;20063;-85
2022/05/10 07:28:02;;;;;;;12.63;3.35;;;;;;;13.76;100.00;98586.09;4925047;29;20410;-82
2022/05/10 07:30:28;;;;;;;15.93;3.22;;;;;;;14.17;100.00;98583.63;4924559;29;20031;-83
2022/05/10 07:32:54;;;;;;;12.40;3.13;;;;;;;14.60;100.00;98595.66;4924944;29;20103;-82
2022/05/10 07:36:23;;;;;;;11.55;3.35;;;;;;;14.64;100.00;98588.88;4921297;29;20036;-82
2022/05/10 07:38:09;;;;;;;11.48;3.30;;;;;;;15.00;100.00;98602.03;4919039;29;20057;-84
2022/05/10 07:40:35;;;;;;;11.75;3.58;;;;;;;15.18;100.00;98598.41;4920361;29;20039;-84
2022/05/10 07:43:00;;;;;;;14.60;2.92;;;;;;;15.46;100.00;98598.66;4909626;29;20106;-84
2022/05/10 07:45:26;;;;;;;10.95;3.05;;;;;;;14.89;100.00;98606.31;4929883;29;20549;-83
2022/05/10 07:47:52;;;;;;;11.40;3.47;;;;;;;15.35;100.00;98595.81;4927591;29;20391;-84
2022/05/10 07:50:17;;;;;;;13.60;3.00;;;;;;;15.66;100.00;98598.19;4926424;29;20039;-83
2022/05/10 07:52:44;;;;;;;18.67;3.22;;;;;;;16.03;100.00;98603.06;4923327;29;20032;-84
2022/05/10 07:55:14;;;;;;;14.48;3.20;;;;;;;15.48;100.00;98602.66;4919710;29;20423;-85
2022/05/10 07:57:40;;;;;;;12.20;4.70;;;;;;;15.39;100.00;98593.50;4928580;29;20027;-84
2022/05/10 08:00:11;;;;;;;15.38;3.30;;;;;;;15.31;100.00;98599.97;4926141;29;20141;-83
2022/05/10 08:02:37;;;;;;;12.10;2.65;;;;;;;14.93;100.00;98609.28;4923821;29;20100;-84
2022/05/10 08:05:03;;;;;;;15.15;2.78;;;;;;;15.07;100.00;98617.75;4923757;29;20053;-85
2022/05/10 08:07:29;;;;;;;9.77;2.80;;;;;;;15.14;100.00;98605.22;4923885;29;20043;-84
2022/05/10 08:09:55;;;;;;;19.95;4.25;;;;;;;15.67;100.00;98599.81;4923189;29;20027;-84
2022/05/10 08:12:21;;;;;;;14.15;3.25;;;;;;;15.71;100.00;98606.22;4924903;29;20032;-84
2022/05/10 08:14:47;;;;;;;10.15;2.85;;;;;;;15.73;100.00;98606.81;4924574;29;20032;-85
2022/05/10 08:17:13;;;;;;;8.77;2.70;;;;;;;15.68;100.00;98617.28;4925122;29;20035;-81
2022/05/10 08:19:41;;;;;;;15.00;3.17;;;;;;;16.11;100.00;98609.81;4927049;29;20393;-85
2022/05/10 08:22:07;;;;;;;14.13;3.17;;;;;;;15.99;99.92;98617.81;4923452;29;20028;-84
2022/05/10 08:24:33;;;;;;;9.93;3.50;;;;;;;15.36;100.00;98631.00;4930364;29;20074;-83
2022/05/10 08:26:59;;;;;;;11.05;3.05;;;;;;;15.79;100.00;98612.97;4926022;29;20039;-83
2022/05/10 08:29:25;;;;;;;11.55;2.85;;;;;;;16.74;98.55;98627.38;4903618;29;20187;-81
2022/05/10 08:31:50;;;;;;;12.40;3.42;;;;;;;16.02;98.88;98624.50;4927785;29;20028;-80
2022/05/10 08:34:16;;;;;;;14.63;3.28;;;;;;;16.09;99.04;98617.97;4926297;29;20032;-82
2022/05/10 08:36:42;;;;;;;12.30;3.65;;;;;;;16.01;99.06;98633.44;4928542;29;20042;-80
2022/05/10 08:39:07;;;;;;;18.70;4.10;;;;;;;16.62;98.13;98630.94;4925741;29;20024;-81
2022/05/10 08:41:49;;;;;;;17.38;3.10;;;;;;;16.53;97.79;98637.69;4924877;29;20035;-82
2022/05/10 08:44:18;;;;;;;15.10;3.20;;;;;;;17.18;97.06;98627.41;4923215;29;20038;-83
2022/05/10 08:46:47;;;;;;;12.38;3.00;;;;;;;16.78;96.53;98644.38;4925011;29;20032;-79
2022/05/10 08:49:25;;;;;;;14.52;4.10;;;;;;;16.85;96.28;98647.66;4923411;29;20042;-79
2022/05/10 08:51:55;;;;;;;14.90;3.13;;;;;;;16.78;95.41;98637.22;4911784;29;20039;-83
2022/05/10 08:54:22;;;;;;;13.30;3.47;;;;;;;17.58;93.94;98640.56;4921974;29;20044;-82
2022/05/10 08:57:02;;;;;;;10.82;2.75;;;;;;;17.45;92.88;98631.94;4925393;29;20036;-83
2022/05/10 08:59:28;;;;;;;11.00;3.80;;;;;;;17.53;93.00;98642.09;4924821;29;20038;-83
2022/05/10 09:02:15;;;;;;;17.58;3.50;;;;;;;17.77;92.93;98636.50;4908165;29;20031;-84
2022/05/10 09:05:02;;;;;;;16.05;3.95;;;;;;;16.90;95.71;98647.75;4923232;29;20028;-84
2022/05/10 09:07:34;;;;;;;8.60;3.38;;;;;;;16.93;95.97;98647.25;4924887;29;20024;-83
2022/05/10 09:10:15;;;;;;;11.77;3.45;;;;;;;16.51;96.86;98640.59;4923339;29;20042;-83
2022/05/10 09:13:11;;;;;;;18.13;3.60;;;;;;;17.20;95.49;98635.91;4908590;29;20069;-84
2022/05/10 09:15:40;;;;;;;17.55;4.30;;;;;;;17.33;94.97;98642.69;4920730;29;20048;-82
2022/05/10 09:18:17;;;;;;;16.73;3.83;;;;;;;17.64;95.42;98634.22;4920242;29;20040;-82
2022/05/10 09:20:56;;;;;;;17.88;3.67;;;;;;;17.13;95.17;98632.66;4921123;29;20493;-82
2022/05/10 09:23:40;;;;;;;12.65;3.72;;;;;;;17.53;94.08;98634.16;4923100;29;20367;-82
2022/05/10 09:26:08;;;;;;;14.80;3.65;;;;;;;17.93;93.17;98633.97;4924250;29;20048;-83
2022/05/10 09:28:50;;;;;;;11.23;3.42;;;;;;;17.79;94.96;98641.56;4925647;29;20051;-83
2022/05/10 09:37:28;;;;;;;16.63;3.80;;;;;;;16.94;92.37;98640.88;4923949;29;20036;-83
2022/05/10 09:39:57;;;;;;;11.32;2.97;;;;;;;17.22;91.78;98633.03;4925660;29;20038;-82
2022/05/10 09:42:44;;;;;;;11.98;3.47;;;;;;;17.01;92.75;98619.53;4925365;29;20032;-83
2022/05/10 09:45:20;;;;;;;17.33;4.10;;;;;;;17.28;91.29;98638.13;4919106;29;20055;-82
2022/05/10 09:47:55;;;;;;;16.35;4.05;;;;;;;17.59;91.84;98636.84;4919866;29;20474;-83
2022/05/10 09:50:25;;;;;;;14.88;3.70;;;;;;;17.85;91.16;98622.75;4918988;29;20107;-82
2022/05/10 09:53:09;;;;;;;15.77;3.40;;;;;;;17.28;90.83;98616.91;4921271;29;20572;-82
2022/05/10 09:55:35;;;;;;;;;;;;;;;17.72;89.29;98615.22;4924511;29;20032;-82
2022/05/10 09:58:19;;;;;;;10.05;3.10;;;;;;;17.16;90.01;98618.09;4925890;29;19922;-82
2022/05/10 10:00:56;;;;;;;10.23;3.10;;;;;;;16.68;91.25;98619.34;4921417;29;20091;-82
2022/05/10 10:03:38;;;;;;;13.75;3.28;;;;;;;17.24;91.65;98621.09;4924652;29;20384;-82
2022/05/10 10:06:23;;;;;;;12.45;3.95;;;;;;;17.91;92.01;98617.50;4925946;29;20032;-82
2022/05/10 10:08:50;;;;;;;10.43;3.53;;;;;;;18.23;89.09;98601.56;4921461;28;20039;-82
2022/05/10 10:11:22;;;;;;;10.63;4.10;;;;;;;18.83;88.65;98605.84;4921307;29;20501;-82
2022/05/10 10:14:32;;;;;;;14.35;4.13;;;;;;;18.81;86.68;98602.66;4925278;29;20031;-82
2022/05/10 10:16:57;;;;;;;13.07;3.17;;;;;;;17.97;85.24;98601.31;4919010;29;20448;-81
2022/05/10 10:19:32;;;;;;;9.43;3.20;;;;;;;18.00;87.33;98618.63;4924189;29;20025;-82
2022/05/10 10:22:33;;;;;;;11.02;3.05;;;;;;;18.07;88.23;98613.91;4921257;29;20046;-82
2022/05/10 10:25:04;;;;;;;9.98;3.50;;;;;;;18.81;86.72;98618.59;4920472;29;20033;-82
2022/05/10 10:27:48;;;;;;;12.35;3.15;;;;;;;18.54;87.42;98619.53;4921215;29;20035;-81
2022/05/10 10:30:31;;;;;;;11.60;3.30;;;;;;;18.36;88.01;98618.09;4920723;29;20167;-82
2022/05/10 10:33:17;;;;;;;11.20;3.42;;;;;;;17.48;89.26;98614.72;4920925;29;20352;-82
2022/05/10 10:35:50;;;;;;;10.40;3.03;;;;;;;18.10;89.56;98652.44;4921537;29;20046;-82
2022/05/10 10:38:26;;;;;;;9.00;3.13;;;;;;;18.77;90.55;98612.22;4921072;29;20047;-82
2022/05/10 10:41:15;;;;;;;9.43;2.88;;;;;;;18.75;90.31;98620.44;4926679;29;20032;-82
2022/05/10 10:43:49;;;;;;;11.13;3.28;;;;;;;18.84;90.06;98612.75;4924312;29;20451;-83
2022/05/10 10:46:37;;;;;;;6.50;2.90;;;;;;;19.53;89.36;98626.84;4914064;29;20398;-83
2022/05/10 10:49:11;;;;;;;14.65;3.65;;;;;;;18.69;89.23;98621.47;4913483;29;20473;-82
2022/05/10 10:51:38;;;;;;;7.95;3.30;;;;;;;18.66;88.96;98612.16;4922084;29;20079;-82
2022/05/10 10:54:04;;;;;;;13.77;3.60;;;;;;;17.72;89.64;98609.91;4920766;29;20035;-82
2022/05/10 10:56:46;;;;;;;17.90;3.35;;;;;;;17.30;90.60;98619.31;4924845;29;20512;-82
2022/05/10 10:59:40;;;;;;;11.05;2.90;;;;;;;18.86;88.96;98610.63;4906287;29;20031;-82
2022/05/10 11:02:26;;;;;;;4.57;2.90;;;;;;;18.76;88.99;98613.28;4922085;29;20087;-82
2022/05/10 11:05:20;;;;;;;9.48;3.00;;;;;;;18.13;92.20;98626.19;4922076;29;20031;-82
2022/05/10 11:08:09;;;;;;;7.07;2.83;;;;;;;17.39;93.39;98651.50;4918627;29;20050;-82
2022/05/10 11:10:50;;;;;;;10.88;2.75;;;;;;;17.14;94.71;98636.91;4923469;29;20135;-84
2022/05/10 11:13:46;;;;;;;8.38;2.75;;;;;;;17.04;97.20;98631.47;4923216;29;20032;-82
2022/05/10 11:16:21;;;;;;;9.88;2.95;;;;;;;17.71;96.06;98621.56;4924835;29;20070;-82
2022/05/10 11:18:52;;;;;;;9.15;2.80;;;;;;;17.78;95.74;98614.19;4926589;29;20126;-82
2022/05/10 11:21:39;;;;;;;8.77;3.28;;;;;;;18.15;93.48;98627.78;4927403;29;20036;-82
2022/05/10 11:24:16;;;;;;;14.85;3.20;;;;;;;17.70;91.46;98625.28;4924614;29;20040;-81
2022/05/10 11:26:52;;;;;;;12.70;2.92;;;;;;;18.77;89.01;98604.22;4939815;29;20032;-82
2022/05/10 11:29:23;;;;;;;10.88;2.90;;;;;;;18.30;89.84;98606.66;4926769;29;20059;-82
2022/05/10 11:32:22;;;;;;;9.73;3.38;;;;;;;19.05;86.00;98604.91;4922167;29;20087;-82
2022/05/10 11:35:02;;;;;;;8.60;3.33;;;;;;;19.89;84.00;98609.31;4928829;29;20083;-82
2022/05/10 11:37:36;;;;;;;13.45;3.38;;;;;;;19.58;83.21;98603.94;4926960;29;20079;-82
2022/05/10 11:40:17;;;;;;;;;;;;;;;20.06;83.15;98595.72;4922328;29;20040;-82
2022/05/10 11:43:08;;;;;;;7.95;3.08;;;;;;;19.76;83.70;98579.47;4916136;29;20051;-82
2022/05/10 11:45:37;;;;;;;9.15;3.97;;;;;;;19.36;81.79;98603.13;4921137;29;20028;-82
2022/05/10 11:48:24;;;;;;;14.00;3.47;;;;;;;19.97;81.33;98595.47;4927853;29;20044;-82
2022/05/10 11:54:03;;;;;;;6.35;3.50;;;;;;;18.18;87.90;98598.88;4928112;29;20139;-82
2022/05/10 11:56:34;;;;;;;12.15;3.72;;;;;;;18.59;86.04;98593.00;4929878;29;20114;-82
2022/05/10 11:59:05;;;;;;;14.50;3.50;;;;;;;18.24;84.15;98581.91;4925624;29;20467;-82
2022/05/10 12:01:49;;;;;;;7.45;3.15;;;;;;;17.99;83.39;98593.94;4925502;29;20501;-82
2022/05/10 12:04:42;;;;;;;5.82;2.60;;;;;;;17.75;80.64;98593.47;4920211;29;20062;-81
2022/05/10 12:07:32;;;;;;;8.88;2.75;;;;;;;18.40;82.97;98596.06;4924591;29;20552;-81